Sun-Tan Village, FL

6:34 AM EST on December 04, 2016 (GMT -0500)
U of Miami Health System WeatherSTEM | | Change Station

Elev 68 ft 25.79 °N, 80.22 °W | Updated 2 minutes ago

Mostly Cloudy
Mostly Cloudy
74.9 °F
Feels Like 76 °F
N
8.0
Wind Variable Wind from East

Today
High -- | Low -- °F
--% Chance of Precip.
Yesterday
High -- | Low -- °F
Precip. -- in
Pressure 30.04 in
Visibility 10.0 miles
Clouds Few 2500 ft
Mostly Cloudy 4000 ft
Heat Index 76 °F
Dew Point 68 °F
Humidity 78%
Rainfall 0.00 in
Snow Depth Not available.
6:53 AM 5:29 PM
Waxing Crescent, 22% visible
METAR KMIA 041053Z 09010KT 10SM FEW025 BKN040 24/19 A3004 RMK AO2 SLP172 T02390194
Pressure 30.04 in
Visibility 10.0 miles
Clouds Few 2500 ft
Mostly Cloudy 4000 ft
Heat Index 76 °F
Dew Point 68 °F
Humidity 78%
Rainfall 0.00 in
Snow Depth Not available.
6:53 AM 5:29 PM
Waxing Crescent, 22% visible
METAR KMIA 041053Z 09010KT 10SM FEW025 BKN040 24/19 A3004 RMK AO2 SLP172 T02390194

10-Day Weather Forecast

Almanac

Astronomy

Dec. 04, 2016 Rise Set
Actual Time
Civil Twilight
Nautical Twilight
Astronomical Twilight
Moon
Length of Visible Light
Length of Day
Tomorrow will be .
, % of the Moon is Illuminated

Today's Extremes

State Highs State Lows

Community

WunderPhotos

Upload Photos

1,955,593 photos uploaded!

WunderBlog® & News

Nearby

Air Quality

  Air Quality AQ Index Pollutant
Not available.

Snow Depth

Station Depth Elevation

Earthquake Activity

City Distance Mag. Time & Date
Minimum magnitude displayed is 2.5.

Coastal Water Temperatures

Place Temperature

Stations

Nearby Weather Stations

Station Location Temp. Windchill Dew Point Humidity Wind Precip. Elev Updated Type
                   

Watches & Warnings

There are currently no watches in effect.